sensor_id;sensor_type;location;lat;lon;timestamp;P1;durP1;ratioP1;P2;durP2;ratioP2
80732;SDS011;70130;44.534;18.678;2023-06-14T00:00:14;7.38;;;5.60;;
80732;SDS011;70130;44.534;18.678;2023-06-14T00:02:40;8.88;;;5.82;;
80732;SDS011;70130;44.534;18.678;2023-06-14T00:05:06;8.13;;;5.57;;
80732;SDS011;70130;44.534;18.678;2023-06-14T00:07:34;9.52;;;6.20;;
80732;SDS011;70130;44.534;18.678;2023-06-14T00:10:00;9.75;;;5.57;;
80732;SDS011;70130;44.534;18.678;2023-06-14T00:12:27;8.50;;;6.45;;
80732;SDS011;70130;44.534;18.678;2023-06-14T00:14:52;11.27;;;6.45;;
80732;SDS011;70130;44.534;18.678;2023-06-14T00:17:18;6.72;;;5.60;;
80732;SDS011;70130;44.534;18.678;2023-06-14T00:19:43;7.32;;;5.75;;
80732;SDS011;70130;44.534;18.678;2023-06-14T00:22:09;8.93;;;6.63;;
80732;SDS011;70130;44.534;18.678;2023-06-14T00:24:35;10.18;;;6.32;;
80732;SDS011;70130;44.534;18.678;2023-06-14T00:27:00;7.38;;;6.28;;
80732;SDS011;70130;44.534;18.678;2023-06-14T00:29:27;12.05;;;6.80;;
80732;SDS011;70130;44.534;18.678;2023-06-14T00:31:53;10.43;;;7.07;;
80732;SDS011;70130;44.534;18.678;2023-06-14T00:34:19;8.23;;;6.43;;
80732;SDS011;70130;44.534;18.678;2023-06-14T00:36:44;9.02;;;7.28;;
80732;SDS011;70130;44.534;18.678;2023-06-14T00:39:13;10.20;;;6.97;;
80732;SDS011;70130;44.534;18.678;2023-06-14T00:41:39;9.63;;;7.20;;
80732;SDS011;70130;44.534;18.678;2023-06-14T00:44:04;8.77;;;6.82;;
80732;SDS011;70130;44.534;18.678;2023-06-14T00:46:30;11.95;;;7.20;;
80732;SDS011;70130;44.534;18.678;2023-06-14T00:48:56;9.57;;;6.38;;
80732;SDS011;70130;44.534;18.678;2023-06-14T00:51:24;10.15;;;7.03;;
80732;SDS011;70130;44.534;18.678;2023-06-14T00:53:50;13.30;;;6.88;;
80732;SDS011;70130;44.534;18.678;2023-06-14T00:56:16;12.40;;;7.32;;
80732;SDS011;70130;44.534;18.678;2023-06-14T00:58:49;9.55;;;7.82;;
80732;SDS011;70130;44.534;18.678;2023-06-14T01:01:16;12.98;;;7.53;;
80732;SDS011;70130;44.534;18.678;2023-06-14T01:03:41;10.50;;;7.70;;
80732;SDS011;70130;44.534;18.678;2023-06-14T01:06:23;10.77;;;7.32;;
80732;SDS011;70130;44.534;18.678;2023-06-14T01:11:59;13.65;;;8.30;;
80732;SDS011;70130;44.534;18.678;2023-06-14T01:14:31;10.95;;;7.28;;
80732;SDS011;70130;44.534;18.678;2023-06-14T01:17:00;11.80;;;7.68;;
80732;SDS011;70130;44.534;18.678;2023-06-14T01:19:27;11.95;;;7.80;;
80732;SDS011;70130;44.534;18.678;2023-06-14T01:21:54;12.02;;;7.55;;
80732;SDS011;70130;44.534;18.678;2023-06-14T01:24:21;10.55;;;6.53;;
80732;SDS011;70130;44.534;18.678;2023-06-14T01:26:54;10.47;;;7.47;;
80732;SDS011;70130;44.534;18.678;2023-06-14T01:29:26;11.63;;;7.68;;
80732;SDS011;70130;44.534;18.678;2023-06-14T01:31:58;9.43;;;6.80;;
80732;SDS011;70130;44.534;18.678;2023-06-14T01:34:29;9.57;;;6.40;;
80732;SDS011;70130;44.534;18.678;2023-06-14T01:36:55;8.90;;;6.97;;
80732;SDS011;70130;44.534;18.678;2023-06-14T01:39:22;8.77;;;6.82;;
80732;SDS011;70130;44.534;18.678;2023-06-14T01:41:49;10.60;;;6.80;;
80732;SDS011;70130;44.534;18.678;2023-06-14T01:44:17;12.88;;;6.70;;
80732;SDS011;70130;44.534;18.678;2023-06-14T01:46:45;9.25;;;6.82;;
80732;SDS011;70130;44.534;18.678;2023-06-14T01:49:11;9.95;;;6.53;;
80732;SDS011;70130;44.534;18.678;2023-06-14T01:51:37;13.20;;;7.35;;
80732;SDS011;70130;44.534;18.678;2023-06-14T01:54:02;8.68;;;6.75;;
80732;SDS011;70130;44.534;18.678;2023-06-14T01:56:30;9.10;;;6.20;;
80732;SDS011;70130;44.534;18.678;2023-06-14T01:58:56;9.02;;;7.03;;
80732;SDS011;70130;44.534;18.678;2023-06-14T02:01:22;8.93;;;6.30;;
80732;SDS011;70130;44.534;18.678;2023-06-14T02:03:48;11.25;;;6.57;;
80732;SDS011;70130;44.534;18.678;2023-06-14T02:06:15;10.68;;;7.00;;
80732;SDS011;70130;44.534;18.678;2023-06-14T02:08:43;7.68;;;6.03;;
80732;SDS011;70130;44.534;18.678;2023-06-14T02:11:09;7.72;;;6.80;;
80732;SDS011;70130;44.534;18.678;2023-06-14T02:13:35;9.55;;;7.18;;
80732;SDS011;70130;44.534;18.678;2023-06-14T02:16:00;10.02;;;7.25;;
80732;SDS011;70130;44.534;18.678;2023-06-14T02:18:28;10.63;;;7.07;;
80732;SDS011;70130;44.534;18.678;2023-06-14T02:20:55;9.80;;;7.18;;
80732;SDS011;70130;44.534;18.678;2023-06-14T02:23:20;14.10;;;7.05;;
80732;SDS011;70130;44.534;18.678;2023-06-14T02:25:46;10.25;;;7.18;;
80732;SDS011;70130;44.534;18.678;2023-06-14T02:28:12;8.52;;;6.90;;
80732;SDS011;70130;44.534;18.678;2023-06-14T02:30:38;9.75;;;6.65;;
80732;SDS011;70130;44.534;18.678;2023-06-14T02:33:04;10.32;;;7.25;;
80732;SDS011;70130;44.534;18.678;2023-06-14T02:35:31;9.93;;;6.60;;
80732;SDS011;70130;44.534;18.678;2023-06-14T02:37:57;9.63;;;7.10;;
80732;SDS011;70130;44.534;18.678;2023-06-14T02:40:22;9.63;;;6.72;;
80732;SDS011;70130;44.534;18.678;2023-06-14T02:42:48;9.43;;;6.68;;
80732;SDS011;70130;44.534;18.678;2023-06-14T02:45:15;8.95;;;6.55;;
80732;SDS011;70130;44.534;18.678;2023-06-14T02:47:42;9.57;;;7.18;;
80732;SDS011;70130;44.534;18.678;2023-06-14T02:50:07;10.32;;;6.65;;
80732;SDS011;70130;44.534;18.678;2023-06-14T02:52:33;9.10;;;6.93;;
80732;SDS011;70130;44.534;18.678;2023-06-14T02:54:59;10.90;;;6.93;;
80732;SDS011;70130;44.534;18.678;2023-06-14T02:57:25;10.10;;;6.95;;
80732;SDS011;70130;44.534;18.678;2023-06-14T02:59:51;10.25;;;6.88;;
80732;SDS011;70130;44.534;18.678;2023-06-14T03:02:18;8.13;;;6.15;;
80732;SDS011;70130;44.534;18.678;2023-06-14T03:04:44;11.88;;;6.63;;
80732;SDS011;70130;44.534;18.678;2023-06-14T03:07:14;9.02;;;6.60;;
80732;SDS011;70130;44.534;18.678;2023-06-14T03:09:46;12.38;;;7.07;;
80732;SDS011;70130;44.534;18.678;2023-06-14T03:12:15;9.15;;;6.18;;
80732;SDS011;70130;44.534;18.678;2023-06-14T03:14:40;8.82;;;7.47;;
80732;SDS011;70130;44.534;18.678;2023-06-14T03:17:08;10.30;;;6.82;;
80732;SDS011;70130;44.534;18.678;2023-06-14T03:19:38;9.55;;;6.97;;
80732;SDS011;70130;44.534;18.678;2023-06-14T03:22:05;8.77;;;6.63;;
80732;SDS011;70130;44.534;18.678;2023-06-14T03:24:33;9.30;;;7.22;;
80732;SDS011;70130;44.534;18.678;2023-06-14T03:27:04;10.10;;;6.38;;
80732;SDS011;70130;44.534;18.678;2023-06-14T03:29:30;7.78;;;6.78;;
80732;SDS011;70130;44.534;18.678;2023-06-14T03:32:03;11.30;;;6.85;;
80732;SDS011;70130;44.534;18.678;2023-06-14T03:34:35;9.45;;;6.40;;
80732;SDS011;70130;44.534;18.678;2023-06-14T03:37:04;16.48;;;8.13;;
80732;SDS011;70130;44.534;18.678;2023-06-14T03:39:30;9.15;;;6.85;;
80732;SDS011;70130;44.534;18.678;2023-06-14T03:41:56;11.00;;;7.35;;
80732;SDS011;70130;44.534;18.678;2023-06-14T03:44:22;8.43;;;7.00;;
80732;SDS011;70130;44.534;18.678;2023-06-14T03:46:48;8.88;;;6.82;;
80732;SDS011;70130;44.534;18.678;2023-06-14T03:49:14;10.40;;;6.90;;
80732;SDS011;70130;44.534;18.678;2023-06-14T03:51:43;11.52;;;6.85;;
80732;SDS011;70130;44.534;18.678;2023-06-14T03:54:09;9.52;;;6.78;;
80732;SDS011;70130;44.534;18.678;2023-06-14T03:56:36;9.70;;;7.28;;
80732;SDS011;70130;44.534;18.678;2023-06-14T03:59:04;8.73;;;6.50;;
80732;SDS011;70130;44.534;18.678;2023-06-14T04:01:30;10.40;;;7.00;;
80732;SDS011;70130;44.534;18.678;2023-06-14T04:03:59;8.77;;;6.85;;
80732;SDS011;70130;44.534;18.678;2023-06-14T04:06:25;8.75;;;7.22;;
80732;SDS011;70130;44.534;18.678;2023-06-14T04:08:57;10.00;;;6.63;;
80732;SDS011;70130;44.534;18.678;2023-06-14T04:11:27;9.07;;;6.88;;
80732;SDS011;70130;44.534;18.678;2023-06-14T04:13:53;11.93;;;7.05;;
80732;SDS011;70130;44.534;18.678;2023-06-14T04:16:22;9.82;;;7.05;;
80732;SDS011;70130;44.534;18.678;2023-06-14T04:18:47;9.35;;;6.68;;
80732;SDS011;70130;44.534;18.678;2023-06-14T04:21:17;10.45;;;6.85;;
80732;SDS011;70130;44.534;18.678;2023-06-14T04:23:43;12.13;;;6.90;;
80732;SDS011;70130;44.534;18.678;2023-06-14T04:26:11;12.68;;;7.35;;
80732;SDS011;70130;44.534;18.678;2023-06-14T04:28:38;15.55;;;7.60;;
80732;SDS011;70130;44.534;18.678;2023-06-14T04:31:07;14.32;;;7.55;;
80732;SDS011;70130;44.534;18.678;2023-06-14T04:33:37;12.63;;;7.22;;
80732;SDS011;70130;44.534;18.678;2023-06-14T04:36:10;10.77;;;6.85;;
80732;SDS011;70130;44.534;18.678;2023-06-14T04:38:38;9.88;;;6.95;;
80732;SDS011;70130;44.534;18.678;2023-06-14T04:41:04;9.18;;;6.47;;
80732;SDS011;70130;44.534;18.678;2023-06-14T04:43:31;8.50;;;6.65;;
80732;SDS011;70130;44.534;18.678;2023-06-14T04:46:02;9.40;;;5.75;;
80732;SDS011;70130;44.534;18.678;2023-06-14T04:48:30;8.88;;;6.80;;
80732;SDS011;70130;44.534;18.678;2023-06-14T04:50:57;8.95;;;6.90;;
80732;SDS011;70130;44.534;18.678;2023-06-14T04:53:23;6.95;;;5.88;;
80732;SDS011;70130;44.534;18.678;2023-06-14T04:55:52;14.23;;;6.13;;
80732;SDS011;70130;44.534;18.678;2023-06-14T04:58:19;9.43;;;6.07;;
80732;SDS011;70130;44.534;18.678;2023-06-14T05:00:46;9.50;;;6.20;;
80732;SDS011;70130;44.534;18.678;2023-06-14T05:03:11;9.60;;;5.57;;
80732;SDS011;70130;44.534;18.678;2023-06-14T05:05:40;11.18;;;7.63;;
80732;SDS011;70130;44.534;18.678;2023-06-14T05:08:06;13.27;;;6.78;;
80732;SDS011;70130;44.534;18.678;2023-06-14T05:10:32;7.32;;;6.38;;
80732;SDS011;70130;44.534;18.678;2023-06-14T05:13:00;9.63;;;6.55;;
80732;SDS011;70130;44.534;18.678;2023-06-14T05:15:27;9.15;;;6.68;;
80732;SDS011;70130;44.534;18.678;2023-06-14T05:17:54;7.88;;;6.55;;
80732;SDS011;70130;44.534;18.678;2023-06-14T05:20:24;8.77;;;6.97;;
80732;SDS011;70130;44.534;18.678;2023-06-14T05:22:51;9.30;;;6.93;;
80732;SDS011;70130;44.534;18.678;2023-06-14T05:25:19;9.80;;;7.18;;
80732;SDS011;70130;44.534;18.678;2023-06-14T05:27:46;11.55;;;7.70;;
80732;SDS011;70130;44.534;18.678;2023-06-14T05:30:12;10.15;;;7.70;;
80732;SDS011;70130;44.534;18.678;2023-06-14T05:32:38;13.40;;;8.25;;
80732;SDS011;70130;44.534;18.678;2023-06-14T05:35:04;10.75;;;7.88;;
80732;SDS011;70130;44.534;18.678;2023-06-14T05:37:31;11.23;;;8.13;;
80732;SDS011;70130;44.534;18.678;2023-06-14T05:39:56;18.08;;;9.93;;
80732;SDS011;70130;44.534;18.678;2023-06-14T05:42:22;17.13;;;9.57;;
80732;SDS011;70130;44.534;18.678;2023-06-14T05:44:48;13.98;;;8.32;;
80732;SDS011;70130;44.534;18.678;2023-06-14T05:47:13;16.50;;;8.88;;
80732;SDS011;70130;44.534;18.678;2023-06-14T05:49:39;10.40;;;8.48;;
80732;SDS011;70130;44.534;18.678;2023-06-14T05:52:05;13.52;;;7.72;;
80732;SDS011;70130;44.534;18.678;2023-06-14T05:54:31;10.88;;;7.47;;
80732;SDS011;70130;44.534;18.678;2023-06-14T05:56:57;11.65;;;7.22;;
80732;SDS011;70130;44.534;18.678;2023-06-14T05:59:29;10.27;;;7.20;;
80732;SDS011;70130;44.534;18.678;2023-06-14T06:01:55;13.73;;;8.98;;
80732;SDS011;70130;44.534;18.678;2023-06-14T06:04:20;12.95;;;8.20;;
80732;SDS011;70130;44.534;18.678;2023-06-14T06:06:46;18.65;;;9.80;;
80732;SDS011;70130;44.534;18.678;2023-06-14T06:09:12;14.65;;;8.90;;
80732;SDS011;70130;44.534;18.678;2023-06-14T06:11:39;17.23;;;9.38;;
80732;SDS011;70130;44.534;18.678;2023-06-14T06:14:06;13.88;;;9.63;;
80732;SDS011;70130;44.534;18.678;2023-06-14T06:16:32;17.45;;;9.93;;
80732;SDS011;70130;44.534;18.678;2023-06-14T06:18:57;18.42;;;9.23;;
80732;SDS011;70130;44.534;18.678;2023-06-14T06:21:24;15.90;;;9.00;;
80732;SDS011;70130;44.534;18.678;2023-06-14T06:23:50;13.40;;;8.93;;
80732;SDS011;70130;44.534;18.678;2023-06-14T06:26:15;14.93;;;9.63;;
80732;SDS011;70130;44.534;18.678;2023-06-14T06:28:41;14.95;;;9.15;;
80732;SDS011;70130;44.534;18.678;2023-06-14T06:31:07;18.10;;;10.43;;
80732;SDS011;70130;44.534;18.678;2023-06-14T06:33:33;13.75;;;9.30;;
80732;SDS011;70130;44.534;18.678;2023-06-14T06:35:58;14.15;;;10.00;;
80732;SDS011;70130;44.534;18.678;2023-06-14T06:38:24;16.65;;;10.02;;
80732;SDS011;70130;44.534;18.678;2023-06-14T06:40:49;20.65;;;10.10;;
80732;SDS011;70130;44.534;18.678;2023-06-14T06:43:15;18.10;;;10.68;;
80732;SDS011;70130;44.534;18.678;2023-06-14T06:45:45;14.82;;;9.77;;
80732;SDS011;70130;44.534;18.678;2023-06-14T06:48:11;13.95;;;9.52;;
80732;SDS011;70130;44.534;18.678;2023-06-14T06:50:37;17.30;;;11.52;;
80732;SDS011;70130;44.534;18.678;2023-06-14T06:53:03;18.55;;;11.43;;
80732;SDS011;70130;44.534;18.678;2023-06-14T06:55:29;19.08;;;11.60;;
80732;SDS011;70130;44.534;18.678;2023-06-14T06:57:55;20.80;;;11.52;;
80732;SDS011;70130;44.534;18.678;2023-06-14T07:00:20;19.20;;;11.43;;
80732;SDS011;70130;44.534;18.678;2023-06-14T07:02:46;18.65;;;9.73;;
80732;SDS011;70130;44.534;18.678;2023-06-14T07:05:12;20.08;;;11.57;;
80732;SDS011;70130;44.534;18.678;2023-06-14T07:07:38;16.73;;;11.02;;
80732;SDS011;70130;44.534;18.678;2023-06-14T07:10:06;18.60;;;11.75;;
80732;SDS011;70130;44.534;18.678;2023-06-14T07:12:32;20.02;;;11.43;;
80732;SDS011;70130;44.534;18.678;2023-06-14T07:14:59;19.65;;;10.93;;
80732;SDS011;70130;44.534;18.678;2023-06-14T07:17:25;16.27;;;11.25;;
80732;SDS011;70130;44.534;18.678;2023-06-14T07:19:51;14.95;;;9.73;;
80732;SDS011;70130;44.534;18.678;2023-06-14T07:22:16;18.42;;;11.45;;
80732;SDS011;70130;44.534;18.678;2023-06-14T07:24:42;19.10;;;10.55;;
80732;SDS011;70130;44.534;18.678;2023-06-14T07:27:08;17.92;;;10.45;;
80732;SDS011;70130;44.534;18.678;2023-06-14T07:29:34;14.40;;;8.48;;
80732;SDS011;70130;44.534;18.678;2023-06-14T07:32:00;16.85;;;8.38;;
80732;SDS011;70130;44.534;18.678;2023-06-14T07:34:25;16.25;;;9.30;;
80732;SDS011;70130;44.534;18.678;2023-06-14T07:36:52;12.98;;;7.80;;
80732;SDS011;70130;44.534;18.678;2023-06-14T07:39:19;13.73;;;9.00;;
80732;SDS011;70130;44.534;18.678;2023-06-14T07:41:44;18.42;;;9.82;;
80732;SDS011;70130;44.534;18.678;2023-06-14T07:44:10;13.63;;;9.40;;
80732;SDS011;70130;44.534;18.678;2023-06-14T07:46:37;29.48;;;16.05;;
80732;SDS011;70130;44.534;18.678;2023-06-14T07:49:03;19.90;;;12.27;;
80732;SDS011;70130;44.534;18.678;2023-06-14T07:51:29;25.38;;;13.77;;
80732;SDS011;70130;44.534;18.678;2023-06-14T07:53:54;23.85;;;13.48;;
80732;SDS011;70130;44.534;18.678;2023-06-14T07:56:21;16.75;;;9.60;;
80732;SDS011;70130;44.534;18.678;2023-06-14T07:58:48;16.95;;;9.98;;
80732;SDS011;70130;44.534;18.678;2023-06-14T08:01:13;20.05;;;10.68;;
80732;SDS011;70130;44.534;18.678;2023-06-14T08:03:40;20.10;;;10.60;;
80732;SDS011;70130;44.534;18.678;2023-06-14T08:06:06;17.80;;;10.77;;
80732;SDS011;70130;44.534;18.678;2023-06-14T08:08:32;20.77;;;11.35;;
80732;SDS011;70130;44.534;18.678;2023-06-14T08:10:58;19.60;;;11.30;;
80732;SDS011;70130;44.534;18.678;2023-06-14T08:13:23;17.20;;;10.20;;
80732;SDS011;70130;44.534;18.678;2023-06-14T08:15:49;14.52;;;10.10;;
80732;SDS011;70130;44.534;18.678;2023-06-14T08:18:18;14.35;;;9.80;;
80732;SDS011;70130;44.534;18.678;2023-06-14T08:20:44;15.98;;;10.10;;
80732;SDS011;70130;44.534;18.678;2023-06-14T08:23:18;16.63;;;10.52;;
80732;SDS011;70130;44.534;18.678;2023-06-14T08:25:46;13.90;;;9.02;;
80732;SDS011;70130;44.534;18.678;2023-06-14T08:28:11;15.68;;;8.82;;
80732;SDS011;70130;44.534;18.678;2023-06-14T08:30:37;13.10;;;8.48;;
80732;SDS011;70130;44.534;18.678;2023-06-14T08:33:02;14.20;;;7.97;;
80732;SDS011;70130;44.534;18.678;2023-06-14T08:35:28;14.85;;;8.88;;
80732;SDS011;70130;44.534;18.678;2023-06-14T08:37:54;13.32;;;8.20;;
80732;SDS011;70130;44.534;18.678;2023-06-14T08:42:50;13.43;;;8.02;;
80732;SDS011;70130;44.534;18.678;2023-06-14T08:45:18;13.27;;;8.23;;
80732;SDS011;70130;44.534;18.678;2023-06-14T08:47:45;18.10;;;8.43;;
80732;SDS011;70130;44.534;18.678;2023-06-14T08:50:26;17.42;;;10.10;;
80732;SDS011;70130;44.534;18.678;2023-06-14T08:52:56;20.25;;;10.13;;
80732;SDS011;70130;44.534;18.678;2023-06-14T08:55:25;14.52;;;8.80;;
80732;SDS011;70130;44.534;18.678;2023-06-14T08:57:55;11.90;;;8.65;;
80732;SDS011;70130;44.534;18.678;2023-06-14T09:00:25;19.70;;;9.00;;
80732;SDS011;70130;44.534;18.678;2023-06-14T09:02:52;14.75;;;8.73;;
80732;SDS011;70130;44.534;18.678;2023-06-14T09:05:23;16.08;;;9.05;;
80732;SDS011;70130;44.534;18.678;2023-06-14T09:07:50;13.40;;;8.60;;
80732;SDS011;70130;44.534;18.678;2023-06-14T09:10:16;12.60;;;8.35;;
80732;SDS011;70130;44.534;18.678;2023-06-14T09:12:42;14.23;;;8.90;;
80732;SDS011;70130;44.534;18.678;2023-06-14T09:15:08;11.45;;;7.45;;
80732;SDS011;70130;44.534;18.678;2023-06-14T09:17:35;12.43;;;7.93;;
80732;SDS011;70130;44.534;18.678;2023-06-14T09:20:05;10.48;;;7.90;;
80732;SDS011;70130;44.534;18.678;2023-06-14T09:22:34;11.63;;;7.18;;
80732;SDS011;70130;44.534;18.678;2023-06-14T09:25:00;16.05;;;7.88;;
80732;SDS011;70130;44.534;18.678;2023-06-14T09:27:27;16.20;;;8.85;;
80732;SDS011;70130;44.534;18.678;2023-06-14T09:29:53;15.30;;;7.40;;
80732;SDS011;70130;44.534;18.678;2023-06-14T09:32:20;12.43;;;8.02;;
80732;SDS011;70130;44.534;18.678;2023-06-14T09:34:46;14.70;;;8.43;;
80732;SDS011;70130;44.534;18.678;2023-06-14T09:37:12;12.43;;;7.25;;
80732;SDS011;70130;44.534;18.678;2023-06-14T09:39:50;11.10;;;6.55;;
80732;SDS011;70130;44.534;18.678;2023-06-14T09:42:19;10.52;;;5.43;;
80732;SDS011;70130;44.534;18.678;2023-06-14T09:44:48;11.68;;;7.15;;
80732;SDS011;70130;44.534;18.678;2023-06-14T09:47:15;9.98;;;5.53;;
80732;SDS011;70130;44.534;18.678;2023-06-14T09:49:41;6.70;;;5.10;;
80732;SDS011;70130;44.534;18.678;2023-06-14T09:52:14;7.07;;;5.07;;
80732;SDS011;70130;44.534;18.678;2023-06-14T09:54:42;6.45;;;4.20;;
80732;SDS011;70130;44.534;18.678;2023-06-14T09:57:12;12.32;;;5.50;;
80732;SDS011;70130;44.534;18.678;2023-06-14T09:59:42;7.40;;;4.82;;
80732;SDS011;70130;44.534;18.678;2023-06-14T10:02:14;8.85;;;4.40;;
80732;SDS011;70130;44.534;18.678;2023-06-14T10:04:56;8.45;;;6.43;;
80732;SDS011;70130;44.534;18.678;2023-06-14T10:07:26;6.28;;;4.22;;
80732;SDS011;70130;44.534;18.678;2023-06-14T10:09:55;8.43;;;4.50;;
80732;SDS011;70130;44.534;18.678;2023-06-14T10:12:22;12.57;;;4.90;;
80732;SDS011;70130;44.534;18.678;2023-06-14T10:14:49;10.57;;;4.00;;
80732;SDS011;70130;44.534;18.678;2023-06-14T10:17:23;8.48;;;4.47;;
80732;SDS011;70130;44.534;18.678;2023-06-14T10:25:31;5.25;;;3.75;;
80732;SDS011;70130;44.534;18.678;2023-06-14T10:28:05;5.30;;;3.38;;
80732;SDS011;70130;44.534;18.678;2023-06-14T10:33:31;9.43;;;5.00;;
80732;SDS011;70130;44.534;18.678;2023-06-14T10:36:10;8.55;;;4.82;;
80732;SDS011;70130;44.534;18.678;2023-06-14T10:41:51;7.00;;;4.25;;
80732;SDS011;70130;44.534;18.678;2023-06-14T10:46:47;5.43;;;3.78;;
80732;SDS011;70130;44.534;18.678;2023-06-14T10:49:19;6.78;;;4.18;;
80732;SDS011;70130;44.534;18.678;2023-06-14T10:51:46;7.13;;;3.30;;
80732;SDS011;70130;44.534;18.678;2023-06-14T10:54:17;5.32;;;3.40;;
80732;SDS011;70130;44.534;18.678;2023-06-14T10:56:45;4.80;;;3.30;;
80732;SDS011;70130;44.534;18.678;2023-06-14T10:59:11;3.97;;;3.17;;
80732;SDS011;70130;44.534;18.678;2023-06-14T11:12:55;6.70;;;4.55;;
80732;SDS011;70130;44.534;18.678;2023-06-14T11:15:27;9.68;;;4.55;;
80732;SDS011;70130;44.534;18.678;2023-06-14T11:17:56;9.07;;;4.30;;
80732;SDS011;70130;44.534;18.678;2023-06-14T11:20:26;8.73;;;4.32;;
80732;SDS011;70130;44.534;18.678;2023-06-14T11:22:53;7.47;;;4.22;;
80732;SDS011;70130;44.534;18.678;2023-06-14T11:25:19;4.97;;;3.35;;
80732;SDS011;70130;44.534;18.678;2023-06-14T11:27:45;5.07;;;3.92;;
80732;SDS011;70130;44.534;18.678;2023-06-14T11:30:11;5.03;;;3.75;;
80732;SDS011;70130;44.534;18.678;2023-06-14T11:32:38;8.38;;;5.45;;
80732;SDS011;70130;44.534;18.678;2023-06-14T11:35:04;10.43;;;4.53;;
80732;SDS011;70130;44.534;18.678;2023-06-14T11:37:31;10.63;;;5.05;;
80732;SDS011;70130;44.534;18.678;2023-06-14T11:40:00;7.97;;;4.00;;
80732;SDS011;70130;44.534;18.678;2023-06-14T11:42:26;5.47;;;4.00;;
80732;SDS011;70130;44.534;18.678;2023-06-14T11:44:53;7.47;;;3.70;;
80732;SDS011;70130;44.534;18.678;2023-06-14T11:47:20;7.97;;;5.57;;
80732;SDS011;70130;44.534;18.678;2023-06-14T11:49:46;4.85;;;3.95;;
80732;SDS011;70130;44.534;18.678;2023-06-14T11:52:13;9.15;;;5.05;;
80732;SDS011;70130;44.534;18.678;2023-06-14T11:54:39;5.28;;;4.15;;
80732;SDS011;70130;44.534;18.678;2023-06-14T11:57:09;7.10;;;3.70;;
80732;SDS011;70130;44.534;18.678;2023-06-14T11:59:38;5.87;;;4.30;;
80732;SDS011;70130;44.534;18.678;2023-06-14T12:02:09;7.90;;;4.60;;
80732;SDS011;70130;44.534;18.678;2023-06-14T12:04:40;6.45;;;3.75;;
80732;SDS011;70130;44.534;18.678;2023-06-14T12:12:17;5.78;;;4.10;;
80732;SDS011;70130;44.534;18.678;2023-06-14T12:14:43;5.47;;;4.07;;
80732;SDS011;70130;44.534;18.678;2023-06-14T12:17:09;8.02;;;4.88;;
80732;SDS011;70130;44.534;18.678;2023-06-14T12:19:41;5.80;;;4.55;;
80732;SDS011;70130;44.534;18.678;2023-06-14T12:22:09;6.30;;;4.13;;
80732;SDS011;70130;44.534;18.678;2023-06-14T12:24:35;7.30;;;4.35;;
80732;SDS011;70130;44.534;18.678;2023-06-14T12:27:01;14.85;;;6.82;;
80732;SDS011;70130;44.534;18.678;2023-06-14T12:29:28;6.03;;;4.05;;
80732;SDS011;70130;44.534;18.678;2023-06-14T12:31:54;7.10;;;3.92;;
80732;SDS011;70130;44.534;18.678;2023-06-14T12:34:25;5.18;;;3.72;;
80732;SDS011;70130;44.534;18.678;2023-06-14T12:36:55;5.13;;;4.07;;
80732;SDS011;70130;44.534;18.678;2023-06-14T12:39:21;5.53;;;3.63;;
80732;SDS011;70130;44.534;18.678;2023-06-14T12:41:47;5.65;;;4.18;;
80732;SDS011;70130;44.534;18.678;2023-06-14T12:44:14;9.20;;;4.57;;
80732;SDS011;70130;44.534;18.678;2023-06-14T12:46:41;4.82;;;3.63;;
80732;SDS011;70130;44.534;18.678;2023-06-14T12:49:08;6.03;;;3.90;;
80732;SDS011;70130;44.534;18.678;2023-06-14T12:51:36;4.75;;;3.83;;
80732;SDS011;70130;44.534;18.678;2023-06-14T12:54:01;5.00;;;3.45;;
80732;SDS011;70130;44.534;18.678;2023-06-14T12:56:27;6.30;;;3.92;;
80732;SDS011;70130;44.534;18.678;2023-06-14T12:58:53;5.90;;;3.88;;
80732;SDS011;70130;44.534;18.678;2023-06-14T13:01:19;5.45;;;3.40;;
80732;SDS011;70130;44.534;18.678;2023-06-14T13:03:45;4.30;;;3.40;;
80732;SDS011;70130;44.534;18.678;2023-06-14T13:06:11;4.85;;;4.30;;
80732;SDS011;70130;44.534;18.678;2023-06-14T13:08:37;6.68;;;4.47;;
80732;SDS011;70130;44.534;18.678;2023-06-14T13:11:03;6.60;;;5.10;;
80732;SDS011;70130;44.534;18.678;2023-06-14T13:13:28;6.93;;;4.38;;
80732;SDS011;70130;44.534;18.678;2023-06-14T13:15:54;4.95;;;3.58;;
80732;SDS011;70130;44.534;18.678;2023-06-14T13:18:20;4.70;;;3.80;;
80732;SDS011;70130;44.534;18.678;2023-06-14T13:20:46;6.05;;;4.35;;
80732;SDS011;70130;44.534;18.678;2023-06-14T13:23:12;5.50;;;4.15;;
80732;SDS011;70130;44.534;18.678;2023-06-14T13:25:38;7.13;;;4.10;;
80732;SDS011;70130;44.534;18.678;2023-06-14T13:28:03;6.50;;;3.72;;
80732;SDS011;70130;44.534;18.678;2023-06-14T13:30:30;5.60;;;3.78;;
80732;SDS011;70130;44.534;18.678;2023-06-14T13:32:57;5.45;;;4.05;;
80732;SDS011;70130;44.534;18.678;2023-06-14T13:35:23;7.65;;;4.40;;
80732;SDS011;70130;44.534;18.678;2023-06-14T13:37:49;9.73;;;5.43;;
80732;SDS011;70130;44.534;18.678;2023-06-14T13:40:15;6.80;;;4.85;;
80732;SDS011;70130;44.534;18.678;2023-06-14T13:42:41;4.85;;;4.35;;
80732;SDS011;70130;44.534;18.678;2023-06-14T13:45:06;5.43;;;4.03;;
80732;SDS011;70130;44.534;18.678;2023-06-14T13:47:33;7.15;;;4.10;;
80732;SDS011;70130;44.534;18.678;2023-06-14T13:49:58;5.93;;;4.10;;
80732;SDS011;70130;44.534;18.678;2023-06-14T13:52:24;6.22;;;4.72;;
80732;SDS011;70130;44.534;18.678;2023-06-14T13:54:50;7.45;;;5.10;;
80732;SDS011;70130;44.534;18.678;2023-06-14T13:57:16;10.05;;;5.88;;
80732;SDS011;70130;44.534;18.678;2023-06-14T13:59:42;8.77;;;5.75;;
80732;SDS011;70130;44.534;18.678;2023-06-14T14:02:11;5.85;;;4.82;;
80732;SDS011;70130;44.534;18.678;2023-06-14T14:04:38;7.03;;;4.68;;
80732;SDS011;70130;44.534;18.678;2023-06-14T14:07:05;7.20;;;5.60;;
80732;SDS011;70130;44.534;18.678;2023-06-14T14:09:32;8.20;;;5.13;;
80732;SDS011;70130;44.534;18.678;2023-06-14T14:11:58;5.93;;;4.88;;
80732;SDS011;70130;44.534;18.678;2023-06-14T14:14:24;7.00;;;5.30;;
80732;SDS011;70130;44.534;18.678;2023-06-14T14:16:50;9.50;;;6.72;;
80732;SDS011;70130;44.534;18.678;2023-06-14T14:19:20;7.60;;;6.15;;
80732;SDS011;70130;44.534;18.678;2023-06-14T14:21:47;5.80;;;5.10;;
80732;SDS011;70130;44.534;18.678;2023-06-14T14:24:13;7.28;;;5.40;;
80732;SDS011;70130;44.534;18.678;2023-06-14T14:26:38;6.40;;;5.10;;
80732;SDS011;70130;44.534;18.678;2023-06-14T14:29:04;7.40;;;4.93;;
80732;SDS011;70130;44.534;18.678;2023-06-14T14:31:31;6.82;;;5.13;;
80732;SDS011;70130;44.534;18.678;2023-06-14T14:33:56;5.40;;;4.82;;
80732;SDS011;70130;44.534;18.678;2023-06-14T14:36:22;8.85;;;4.82;;
80732;SDS011;70130;44.534;18.678;2023-06-14T14:38:47;7.63;;;5.53;;
80732;SDS011;70130;44.534;18.678;2023-06-14T14:41:13;7.68;;;4.85;;
80732;SDS011;70130;44.534;18.678;2023-06-14T14:43:39;6.78;;;5.88;;
80732;SDS011;70130;44.534;18.678;2023-06-14T14:46:04;7.05;;;5.70;;
80732;SDS011;70130;44.534;18.678;2023-06-14T14:48:30;6.63;;;5.60;;
80732;SDS011;70130;44.534;18.678;2023-06-14T14:50:56;9.85;;;7.80;;
80732;SDS011;70130;44.534;18.678;2023-06-14T14:53:22;8.70;;;7.05;;
80732;SDS011;70130;44.534;18.678;2023-06-14T14:55:47;8.43;;;6.13;;
80732;SDS011;70130;44.534;18.678;2023-06-14T14:58:13;7.40;;;6.20;;
80732;SDS011;70130;44.534;18.678;2023-06-14T15:00:43;8.60;;;5.72;;